Time;durP1;ratioP1;P1;durP2;ratioP2;P2;SDS_P1;SDS_P2;PMS_P1;PMS_P2;Temp;Humidity;BMP_temperature;BMP_pressure;BME280_temperature;BME280_humidity;BME280_pressure;Samples;Min_cycle;Max_cycle;Signal;HPM_P1;HPM_P2
2023/12/24 00:01:04;;;;;;;;;;;;;;;16.19;40.05;99580.16;5076274;28;1300;-45
2023/12/24 00:03:31;;;;;;;;;;;;;;;17.27;37.62;99592.47;5061426;28;1027;-47
2023/12/24 00:05:56;;;;;;;;;;;;;;;16.24;39.30;99593.84;5075504;28;1138;-47
2023/12/24 00:08:21;;;;;;;;;;;;;;;15.77;40.36;99595.28;5058720;28;1064;-49
2023/12/24 00:10:47;;;;;;;;;;;;;;;15.73;40.90;99581.44;5067025;28;1840;-45
2023/12/24 00:13:13;;;;;;;;;;;;;;;17.25;37.70;99587.31;5068486;28;1072;-46
2023/12/24 00:15:38;;;;;;;;;;;;;;;16.61;38.59;99581.69;5062263;28;1975;-48
2023/12/24 00:18:04;;;;;;;;;;;;;;;15.88;40.25;99597.81;5068587;28;1108;-47
2023/12/24 00:20:29;;;;;;;;;;;;;;;15.65;41.03;99602.50;5078473;28;1103;-47
2023/12/24 00:23:07;;;;;;;;;;;;;;;16.65;39.26;99604.31;5077614;28;1131;-48
2023/12/24 00:25:34;;;;;;;;;;;;;;;17.11;38.03;99601.94;5073662;28;1095;-46
2023/12/24 00:27:59;;;;;;;;;;;;;;;16.18;39.96;99615.66;5070076;28;1055;-44
2023/12/24 00:30:28;;;;;;;;;;;;;;;15.83;40.85;99607.97;5060388;28;1063;-51
2023/12/24 00:32:56;;;;;;;;;;;;;;;15.45;41.55;99597.13;5052919;28;1185;-45
2023/12/24 00:35:21;;;;;;;;;;;;;;;16.72;38.85;99597.47;5065423;28;1917;-46
2023/12/24 00:37:47;;;;;;;;;;;;;;;16.85;38.47;99602.50;5049241;28;1016;-51
2023/12/24 00:40:13;;;;;;;;;;;;;;;15.99;40.32;99601.38;5063106;28;1215;-53
2023/12/24 00:42:39;;;;;;;;;;;;;;;15.64;41.04;99600.81;5055174;28;2658;-49
2023/12/24 00:45:05;;;;;;;;;;;;;;;16.24;39.97;99596.50;5046841;28;1125;-42
2023/12/24 00:47:30;;;;;;;;;;;;;;;17.19;37.97;99595.88;5078144;28;883;-46
2023/12/24 00:49:56;;;;;;;;;;;;;;;16.22;39.73;99609.91;5057065;28;1239;-47
2023/12/24 00:52:21;;;;;;;;;;;;;;;15.77;40.67;99609.38;5069553;28;1046;-47
2023/12/24 00:54:47;;;;;;;;;;;;;;;15.55;41.13;99600.66;5055155;28;1975;-48
2023/12/24 00:57:14;;;;;;;;;;;;;;;16.97;38.66;99603.16;5058430;28;1064;-50
2023/12/24 00:59:39;;;;;;;;;;;;;;;16.77;38.71;99594.41;5058186;28;1497;-46
2023/12/24 01:02:05;;;;;;;;;;;;;;;16.01;40.23;99610.03;5069793;28;1159;-47
2023/12/24 01:04:30;;;;;;;;;;;;;;;15.66;41.18;99610.31;5072964;28;1059;-48
2023/12/24 01:06:57;;;;;;;;;;;;;;;15.82;40.78;99593.06;5069362;28;1031;-49
2023/12/24 01:09:22;;;;;;;;;;;;;;;17.23;38.10;99597.25;5046177;28;1063;-49
2023/12/24 01:11:48;;;;;;;;;;;;;;;16.37;39.69;99601.53;5048673;28;1901;-48
2023/12/24 01:14:13;;;;;;;;;;;;;;;15.82;40.76;99610.78;5075487;28;1901;-46
2023/12/24 01:16:41;;;;;;;;;;;;;;;15.55;41.69;99605.94;5065880;28;1058;-47
2023/12/24 01:19:07;;;;;;;;;;;;;;;17.06;38.52;99620.09;5063285;28;1134;-46
2023/12/24 01:21:33;;;;;;;;;;;;;;;16.64;38.95;99615.94;5059944;28;1459;-49
2023/12/24 01:23:59;;;;;;;;;;;;;;;15.85;40.90;99621.13;5048956;28;1375;-47
2023/12/24 01:26:25;;;;;;;;;;;;;;;15.56;41.41;99630.66;5069703;28;1218;-49
2023/12/24 01:28:51;;;;;;;;;;;;;;;16.92;38.96;99641.75;5077341;28;1047;-44
2023/12/24 01:31:16;;;;;;;;;;;;;;;16.73;38.89;99630.19;5077576;28;1083;-47
2023/12/24 01:33:42;;;;;;;;;;;;;;;15.83;40.83;99625.72;5040218;28;1139;-49
2023/12/24 01:36:07;;;;;;;;;;;;;;;15.55;41.29;99624.50;5041418;28;1910;-50
2023/12/24 01:38:33;;;;;;;;;;;;;;;16.63;39.30;99628.38;5056312;28;1056;-47
2023/12/24 01:40:59;;;;;;;;;;;;;;;16.79;38.93;99621.66;5074542;28;2540;-49
2023/12/24 01:43:25;;;;;;;;;;;;;;;15.94;40.75;99635.38;5061321;28;1047;-47
2023/12/24 01:45:50;;;;;;;;;;;;;;;15.63;41.06;99638.91;5059225;28;1148;-45
2023/12/24 01:48:16;;;;;;;;;;;;;;;16.39;39.91;99647.38;5044319;28;1159;-46
2023/12/24 01:50:42;;;;;;;;;;;;;;;17.18;38.00;99642.06;5050190;28;1127;-48
2023/12/24 01:53:08;;;;;;;;;;;;;;;16.22;39.87;99628.50;5076732;28;1075;-47
2023/12/24 01:55:33;;;;;;;;;;;;;;;15.69;41.29;99624.28;5076633;28;1991;-49
2023/12/24 01:57:58;;;;;;;;;;;;;;;15.98;40.64;99620.88;5076571;28;1036;-47
2023/12/24 02:00:24;;;;;;;;;;;;;;;17.30;38.17;99616.13;5058121;28;1216;-44
2023/12/24 02:02:50;;;;;;;;;;;;;;;16.41;39.76;99634.81;5045938;28;1439;-46
2023/12/24 02:05:16;;;;;;;;;;;;;;;15.86;40.61;99641.38;5042267;28;1553;-48
2023/12/24 02:07:41;;;;;;;;;;;;;;;15.65;41.42;99637.81;5058723;28;1071;-47
2023/12/24 02:10:07;;;;;;;;;;;;;;;16.68;39.51;99635.09;5058889;28;1028;-46
2023/12/24 02:12:34;;;;;;;;;;;;;;;17.14;38.05;99645.97;5057771;28;2306;-46
2023/12/24 02:14:59;;;;;;;;;;;;;;;16.14;40.12;99655.72;5076462;28;1905;-48
2023/12/24 02:17:25;;;;;;;;;;;;;;;15.68;41.11;99644.66;5058329;28;1059;-49
2023/12/24 02:19:50;;;;;;;;;;;;;;;15.62;41.35;99661.94;5058121;28;1055;-44
2023/12/24 02:22:16;;;;;;;;;;;;;;;17.10;38.52;99661.34;5041528;28;1118;-50
2023/12/24 02:24:42;;;;;;;;;;;;;;;16.67;38.97;99665.25;5053527;28;1086;-49
2023/12/24 02:27:26;;;;;;;;;;;;;;;15.98;40.28;99664.19;5058048;28;1135;-47
2023/12/24 02:29:53;;;;;;;;;;;;;;;15.65;41.74;99689.97;5041718;28;1495;-49
2023/12/24 02:32:18;;;;;;;;;;;;;;;17.19;38.40;99680.06;5045380;28;1091;-48
2023/12/24 02:34:45;;;;;;;;;;;;;;;16.75;39.05;99697.25;5057873;28;1986;-46
2023/12/24 02:37:10;;;;;;;;;;;;;;;16.03;40.53;99691.13;5068721;28;889;-47
2023/12/24 02:39:37;;;;;;;;;;;;;;;15.66;41.53;99695.16;5051292;28;1139;-49
2023/12/24 02:42:05;;;;;;;;;;;;;;;16.53;39.83;99693.91;5046452;28;2458;-46
2023/12/24 02:44:30;;;;;;;;;;;;;;;17.36;37.92;99697.13;5051145;28;1107;-48
2023/12/24 02:46:57;;;;;;;;;;;;;;;16.34;39.69;99700.03;5076020;28;1151;-49
2023/12/24 02:49:23;;;;;;;;;;;;;;;15.82;40.83;99701.78;5037211;28;986;-44
2023/12/24 02:51:48;;;;;;;;;;;;;;;15.61;41.50;99707.13;5075950;28;1113;-45
2023/12/24 02:54:14;;;;;;;;;;;;;;;17.12;38.58;99703.72;5062247;28;1131;-47
2023/12/24 02:56:39;;;;;;;;;;;;;;;16.51;39.46;99720.59;5069409;28;1120;-47
2023/12/24 02:59:05;;;;;;;;;;;;;;;15.91;41.06;99734.63;5056440;28;1091;-47
2023/12/24 03:01:30;;;;;;;;;;;;;;;15.64;41.48;99747.47;5044646;28;1321;-46
2023/12/24 03:03:56;;;;;;;;;;;;;;;17.01;38.79;99760.47;5057750;28;1084;-47
2023/12/24 03:06:22;;;;;;;;;;;;;;;16.52;39.39;99767.41;5044383;28;1191;-46
2023/12/24 03:08:47;;;;;;;;;;;;;;;15.90;41.02;99764.75;5063152;28;1131;-47
2023/12/24 03:11:13;;;;;;;;;;;;;;;15.63;41.64;99776.78;5069447;28;2231;-43
2023/12/24 03:13:38;;;;;;;;;;;;;;;17.04;38.68;99764.66;5076093;28;881;-45
2023/12/24 03:16:05;;;;;;;;;;;;;;;16.48;39.68;99763.34;5044833;28;1967;-45
2023/12/24 03:18:31;;;;;;;;;;;;;;;15.91;40.74;99777.06;5057468;28;1059;-50
2023/12/24 03:20:56;;;;;;;;;;;;;;;15.62;41.22;99777.72;5062211;28;1367;-47
2023/12/24 03:23:22;;;;;;;;;;;;;;;15.75;41.24;99762.47;5062547;28;1007;-46
2023/12/24 03:25:48;;;;;;;;;;;;;;;17.19;38.55;99757.16;5075312;28;1116;-47
2023/12/24 03:28:13;;;;;;;;;;;;;;;16.55;39.76;99760.16;5044811;28;1191;-48
2023/12/24 03:30:39;;;;;;;;;;;;;;;15.96;40.83;99758.94;5068896;28;1158;-46
2023/12/24 03:33:04;;;;;;;;;;;;;;;15.64;41.29;99767.84;5068078;28;1233;-48
2023/12/24 03:35:30;;;;;;;;;;;;;;;16.60;39.94;99758.75;5073248;28;1910;-51
2023/12/24 03:37:55;;;;;;;;;;;;;;;17.01;38.59;99763.13;5068345;28;1100;-47
2023/12/24 03:40:21;;;;;;;;;;;;;;;16.15;40.30;99762.66;5075523;28;1059;-47
2023/12/24 03:42:46;;;;;;;;;;;;;;;15.74;41.18;99775.84;5051613;28;2619;-44
2023/12/24 03:45:12;;;;;;;;;;;;;;;16.40;40.50;99779.94;5040821;28;1091;-46
2023/12/24 03:47:38;;;;;;;;;;;;;;;17.05;38.84;99780.47;5046876;28;1072;-48
2023/12/24 03:50:05;;;;;;;;;;;;;;;16.17;40.28;99784.59;5075765;28;1076;-49
2023/12/24 03:52:31;;;;;;;;;;;;;;;15.70;41.46;99791.19;5063033;28;1146;-44
2023/12/24 03:54:56;;;;;;;;;;;;;;;15.62;41.70;99805.09;5061126;28;1979;-48
2023/12/24 03:57:22;;;;;;;;;;;;;;;17.15;38.48;99809.72;5062938;28;1195;-49
2023/12/24 03:59:47;;;;;;;;;;;;;;;16.45;39.84;99818.53;5055225;28;1167;-48
2023/12/24 04:02:13;;;;;;;;;;;;;;;15.87;41.10;99826.03;5060943;28;1109;-47
2023/12/24 04:04:43;;;;;;;;;;;;;;;15.58;41.52;99840.75;5078912;28;1205;-49
2023/12/24 04:07:09;;;;;;;;;;;;;;;16.35;40.53;99842.38;5078710;28;1073;-49
2023/12/24 04:09:34;;;;;;;;;;;;;;;17.20;38.47;99852.69;5054936;28;1128;-50
2023/12/24 04:12:00;;;;;;;;;;;;;;;16.19;40.30;99851.66;5045284;28;2453;-48
2023/12/24 04:14:25;;;;;;;;;;;;;;;15.75;41.35;99863.22;5060732;28;1961;-52
2023/12/24 04:16:51;;;;;;;;;;;;;;;15.49;41.86;99860.09;5078262;28;1039;-46
2023/12/24 04:19:16;;;;;;;;;;;;;;;16.98;38.97;99870.53;5078462;28;1114;-47
2023/12/24 04:21:43;;;;;;;;;;;;;;;16.71;38.98;99869.34;5054176;28;1260;-45
2023/12/24 04:24:08;;;;;;;;;;;;;;;15.97;40.81;99876.47;5072021;28;1019;-46
2023/12/24 04:26:35;;;;;;;;;;;;;;;15.61;41.57;99890.06;5047416;28;1291;-43
2023/12/24 04:29:01;;;;;;;;;;;;;;;16.25;40.67;99903.34;5060566;28;1207;-49
2023/12/24 04:31:27;;;;;;;;;;;;;;;17.42;37.90;99893.28;5040437;28;1403;-48
2023/12/24 04:33:52;;;;;;;;;;;;;;;16.39;39.88;99905.69;5053572;28;1583;-46
2023/12/24 04:36:21;;;;;;;;;;;;;;;15.88;41.17;99917.91;5059363;28;1945;-49
2023/12/24 04:38:46;;;;;;;;;;;;;;;15.57;41.87;99921.28;5059571;28;1172;-47
2023/12/24 04:41:16;;;;;;;;;;;;;;;16.59;39.74;99932.31;5055460;28;2365;-47
2023/12/24 04:43:42;;;;;;;;;;;;;;;17.23;38.07;99932.13;5060287;28;1215;-45
2023/12/24 04:46:07;;;;;;;;;;;;;;;16.27;40.32;99935.91;5077793;28;1035;-48
2023/12/24 04:48:33;;;;;;;;;;;;;;;15.84;41.30;99941.19;5054549;28;1231;-45
2023/12/24 04:50:58;;;;;;;;;;;;;;;15.72;41.28;99945.69;5051793;28;1326;-48
2023/12/24 04:53:24;;;;;;;;;;;;;;;17.19;38.30;99949.34;5075147;28;1133;-49
2023/12/24 04:55:49;;;;;;;;;;;;;;;16.35;40.04;99940.59;5075399;28;1938;-47
2023/12/24 04:58:15;;;;;;;;;;;;;;;15.88;41.16;99963.81;5059380;28;1102;-49
2023/12/24 05:00:40;;;;;;;;;;;;;;;16.25;40.18;99965.25;5052436;28;1146;-45
2023/12/24 05:03:07;;;;;;;;;;;;;;;17.41;37.79;99960.72;5053897;28;1206;-50
2023/12/24 05:05:33;;;;;;;;;;;;;;;16.36;39.80;99959.03;5068590;28;987;-48
2023/12/24 05:07:58;;;;;;;;;;;;;;;15.90;40.86;99966.34;5059177;28;1047;-49
2023/12/24 05:10:24;;;;;;;;;;;;;;;15.62;41.36;99971.25;5051742;28;1108;-48
2023/12/24 05:12:49;;;;;;;;;;;;;;;17.10;38.55;99974.09;5065791;28;2688;-46
2023/12/24 05:15:16;;;;;;;;;;;;;;;16.76;39.05;99970.72;5051585;28;2032;-51
2023/12/24 05:17:42;;;;;;;;;;;;;;;16.07;40.68;99967.63;5040824;28;1091;-47
2023/12/24 05:20:08;;;;;;;;;;;;;;;15.67;41.43;99972.59;5070093;28;983;-45
2023/12/24 05:22:33;;;;;;;;;;;;;;;16.42;40.28;99973.59;5072078;28;1067;-49
2023/12/24 05:24:59;;;;;;;;;;;;;;;17.07;38.45;99980.47;5070393;28;1019;-45
2023/12/24 05:27:24;;;;;;;;;;;;;;;16.81;39.37;99985.41;5057623;28;1008;-51
2023/12/24 05:29:50;;;;;;;;;;;;;;;16.85;39.09;99992.16;5065242;28;1151;-50
2023/12/24 05:32:15;;;;;;;;;;;;;;;15.74;41.53;99996.78;5077427;28;1156;-50
2023/12/24 05:34:41;;;;;;;;;;;;;;;17.00;39.17;100006.72;5069527;28;1906;-45
2023/12/24 05:37:06;;;;;;;;;;;;;;;15.90;40.77;100001.66;5058526;28;1031;-49
2023/12/24 05:39:32;;;;;;;;;;;;;;;16.49;40.24;100019.91;5069220;28;1047;-51
2023/12/24 05:41:57;;;;;;;;;;;;;;;17.19;38.42;100028.25;5071124;28;2427;-51
2023/12/24 05:44:23;;;;;;;;;;;;;;;15.90;41.08;100036.16;5077410;28;1055;-50
2023/12/24 05:46:51;;;;;;;;;;;;;;;17.14;39.04;100036.63;5072083;28;1097;-51
2023/12/24 05:49:17;;;;;;;;;;;;;;;16.49;39.92;100037.63;5051263;28;1139;-48
2023/12/24 05:51:42;;;;;;;;;;;;;;;16.52;40.30;100046.19;5071643;28;1102;-50
2023/12/24 05:54:08;;;;;;;;;;;;;;;17.93;37.09;100044.81;5057316;28;1020;-50
2023/12/24 05:56:33;;;;;;;;;;;;;;;16.31;40.18;100064.75;5070176;28;1909;-50
2023/12/24 05:58:59;;;;;;;;;;;;;;;16.36;40.78;100072.31;5071973;28;1214;-51
2023/12/24 06:01:25;;;;;;;;;;;;;;;16.72;39.47;100064.03;5068671;28;1088;-47
2023/12/24 06:03:50;;;;;;;;;;;;;;;15.85;41.38;100078.13;5069803;28;1341;-46
2023/12/24 06:06:16;;;;;;;;;;;;;;;17.89;37.68;100075.31;5065842;28;1155;-49
2023/12/24 06:08:41;;;;;;;;;;;;;;;16.34;40.36;100080.41;5063204;28;1118;-45
2023/12/24 06:11:14;;;;;;;;;;;;;;;17.54;38.40;100072.16;5072693;28;1911;-48
2023/12/24 06:13:39;;;;;;;;;;;;;;;17.35;38.19;100080.94;5065520;28;1055;-52
2023/12/24 06:16:05;;;;;;;;;;;;;;;16.71;39.95;100088.94;5076894;28;1910;-46
2023/12/24 06:18:30;;;;;;;;;;;;;;;18.58;36.29;100086.00;5058150;28;1278;-50
2023/12/24 06:20:56;;;;;;;;;;;;;;;16.88;39.30;100082.19;5076554;28;1031;-43
2023/12/24 06:23:21;;;;;;;;;;;;;;;16.22;40.92;100081.41;5075975;28;1186;-47
2023/12/24 06:25:47;;;;;;;;;;;;;;;17.55;38.32;100081.00;5066550;28;1056;-48
2023/12/24 06:28:12;;;;;;;;;;;;;;;16.23;40.50;100083.94;5059675;28;1082;-47
2023/12/24 06:30:38;;;;;;;;;;;;;;;17.54;38.45;100084.59;5076442;28;996;-48
2023/12/24 06:33:04;;;;;;;;;;;;;;;17.29;38.41;100084.94;5076029;28;1004;-49
2023/12/24 06:35:29;;;;;;;;;;;;;;;16.46;40.38;100093.63;5076156;28;1977;-48
2023/12/24 06:37:55;;;;;;;;;;;;;;;18.48;36.45;100094.00;5073644;28;1153;-49
2023/12/24 06:40:20;;;;;;;;;;;;;;;16.84;39.56;100099.34;5062408;28;1143;-49
2023/12/24 06:42:46;;;;;;;;;;;;;;;16.62;40.46;100093.19;5070863;28;2518;-48
2023/12/24 06:45:11;;;;;;;;;;;;;;;17.21;38.75;100101.56;5062726;28;1143;-48
2023/12/24 06:47:36;;;;;;;;;;;;;;;16.75;40.00;100114.25;5076144;28;996;-46
2023/12/24 06:50:02;;;;;;;;;;;;;;;18.68;36.30;100118.00;5061229;28;1125;-48
2023/12/24 06:52:28;;;;;;;;;;;;;;;17.10;38.71;100109.63;5056080;28;1063;-48
2023/12/24 06:54:53;;;;;;;;;;;;;;;16.53;40.18;100119.53;5055920;28;1906;-48
2023/12/24 06:57:19;;;;;;;;;;;;;;;17.68;38.35;100126.81;5055861;28;1135;-48
2023/12/24 06:59:45;;;;;;;;;;;;;;;16.88;39.39;100135.34;5069129;28;1191;-49
2023/12/24 07:02:10;;;;;;;;;;;;;;;16.26;41.02;100131.50;5057629;28;1170;-47
2023/12/24 07:04:36;;;;;;;;;;;;;;;17.67;37.90;100117.13;5075099;28;1135;-48
2023/12/24 07:07:01;;;;;;;;;;;;;;;16.49;40.31;100122.59;5075881;28;1047;-47
2023/12/24 07:09:27;;;;;;;;;;;;;;;17.84;38.03;100120.13;5075680;28;1219;-45
2023/12/24 07:11:52;;;;;;;;;;;;;;;17.16;39.09;100127.69;5076428;28;2400;-48
2023/12/24 07:14:18;;;;;;;;;;;;;;;16.39;40.80;100130.47;5065021;28;1158;-51
2023/12/24 07:16:43;;;;;;;;;;;;;;;16.87;40.22;100129.16;5055591;28;1906;-49
2023/12/24 07:19:09;;;;;;;;;;;;;;;17.07;38.99;100117.81;5069005;28;1048;-46
2023/12/24 07:21:34;;;;;;;;;;;;;;;16.21;40.99;100120.41;5068484;28;1051;-48
2023/12/24 07:24:00;;;;;;;;;;;;;;;18.05;37.48;100119.19;5057255;28;992;-51
2023/12/24 07:26:25;;;;;;;;;;;;;;;16.76;39.75;100121.25;5057212;28;1112;-48
2023/12/24 07:28:54;;;;;;;;;;;;;;;16.59;40.61;100131.47;5062036;28;1035;-50
2023/12/24 07:31:19;;;;;;;;;;;;;;;17.29;38.54;100118.66;5075413;28;1070;-51
2023/12/24 07:33:45;;;;;;;;;;;;;;;16.32;40.55;100135.44;5075271;28;1032;-51
2023/12/24 07:36:11;;;;;;;;;;;;;;;17.82;37.95;100133.56;5065247;28;1910;-45
2023/12/24 07:38:36;;;;;;;;;;;;;;;16.71;39.53;100128.78;5067038;28;1048;-52
2023/12/24 07:41:03;;;;;;;;;;;;;;;16.18;41.00;100131.28;5059423;28;2410;-47
2023/12/24 07:43:29;;;;;;;;;;;;;;;16.91;40.07;100140.38;5059579;28;1180;-46
2023/12/24 07:45:54;;;;;;;;;;;;;;;16.88;39.34;100145.97;5059602;28;1052;-52
2023/12/24 07:48:20;;;;;;;;;;;;;;;16.56;40.70;100154.78;5064019;28;992;-48
2023/12/24 07:50:45;;;;;;;;;;;;;;;18.46;36.61;100165.25;5079203;28;864;-50
2023/12/24 07:53:11;;;;;;;;;;;;;;;16.75;39.86;100165.56;5075115;28;1047;-46
2023/12/24 07:55:36;;;;;;;;;;;;;;;16.24;40.69;100170.56;5069884;28;1905;-46
2023/12/24 07:58:02;;;;;;;;;;;;;;;16.57;40.65;100177.69;5078498;28;1128;-47
2023/12/24 08:00:28;;;;;;;;;;;;;;;17.34;38.72;100173.13;5068742;28;946;-50
2023/12/24 08:02:54;;;;;;;;;;;;;;;16.20;40.93;100169.13;5071480;28;1079;-47
2023/12/24 08:05:19;;;;;;;;;;;;;;;17.00;39.95;100176.78;5078852;28;1146;-49
2023/12/24 08:07:45;;;;;;;;;;;;;;;17.18;38.88;100168.28;5065832;28;1040;-46
2023/12/24 08:10:10;;;;;;;;;;;;;;;16.36;40.46;100175.84;5068640;28;1154;-49
2023/12/24 08:12:36;;;;;;;;;;;;;;;17.32;39.25;100176.88;5059836;28;2409;-48
2023/12/24 08:15:01;;;;;;;;;;;;;;;16.74;39.80;100171.00;5071873;28;1906;-50
2023/12/24 08:17:27;;;;;;;;;;;;;;;16.16;41.12;100168.53;5078812;28;1198;-48
2023/12/24 08:19:54;;;;;;;;;;;;;;;17.78;38.32;100168.56;5067836;28;1059;-49
2023/12/24 08:22:20;;;;;;;;;;;;;;;16.59;40.38;100168.66;5063199;28;1050;-47
2023/12/24 08:24:45;;;;;;;;;;;;;;;17.66;38.54;100171.31;5078687;28;1063;-44
2023/12/24 08:27:11;;;;;;;;;;;;;;;17.63;38.04;100171.59;5070290;28;1051;-46
2023/12/24 08:29:36;;;;;;;;;;;;;;;16.57;40.41;100185.66;5067039;28;1122;-49
2023/12/24 08:32:02;;;;;;;;;;;;;;;17.55;38.70;100187.38;5076063;28;1229;-47
2023/12/24 08:34:28;;;;;;;;;;;;;;;16.73;40.08;100179.97;5067506;28;1910;-47
2023/12/24 08:36:53;;;;;;;;;;;;;;;16.24;41.16;100178.53;5073049;28;1076;-51
2023/12/24 08:39:18;;;;;;;;;;;;;;;17.59;38.27;100186.13;5064927;28;904;-51
2023/12/24 08:41:44;;;;;;;;;;;;;;;16.39;40.87;100183.56;5061495;28;2331;-48
2023/12/24 08:44:09;;;;;;;;;;;;;;;18.28;37.26;100191.72;5068524;28;1202;-47
2023/12/24 08:46:35;;;;;;;;;;;;;;;17.44;38.45;100193.59;5074091;28;1099;-48
2023/12/24 08:49:00;;;;;;;;;;;;;;;16.59;40.44;100197.00;5068235;28;1182;-48
2023/12/24 08:51:26;;;;;;;;;;;;;;;17.16;39.51;100194.16;5074274;28;1039;-47
2023/12/24 08:53:51;;;;;;;;;;;;;;;16.93;39.81;100198.69;5078779;28;1044;-50
2023/12/24 08:56:17;;;;;;;;;;;;;;;17.42;38.97;100203.50;5061465;28;1906;-49
2023/12/24 08:58:42;;;;;;;;;;;;;;;18.51;36.45;100206.59;5067684;28;1028;-49
2023/12/24 09:01:08;;;;;;;;;;;;;;;16.88;39.86;100207.06;5078191;28;1103;-48
2023/12/24 09:03:34;;;;;;;;;;;;;;;16.29;40.80;100194.09;5077728;28;848;-49
2023/12/24 09:05:59;;;;;;;;;;;;;;;17.90;37.85;100199.41;5077924;28;1099;-47
2023/12/24 09:08:25;;;;;;;;;;;;;;;16.72;40.29;100215.44;5068442;28;1003;-50
2023/12/24 09:10:50;;;;;;;;;;;;;;;16.22;41.28;100220.28;5072029;28;1852;-51
2023/12/24 09:13:16;;;;;;;;;;;;;;;18.04;38.05;100214.16;5066873;28;1051;-46
2023/12/24 09:15:41;;;;;;;;;;;;;;;16.65;40.20;100220.41;5077437;28;2277;-48
2023/12/24 09:18:07;;;;;;;;;;;;;;;16.14;41.52;100212.09;5077607;28;1067;-50
2023/12/24 09:20:32;;;;;;;;;;;;;;;17.98;37.95;100214.72;5062372;28;1088;-49
2023/12/24 09:22:58;;;;;;;;;;;;;;;16.63;40.52;100220.53;5058274;28;1027;-51
2023/12/24 09:25:23;;;;;;;;;;;;;;;17.50;38.99;100217.00;5058297;28;1024;-49
2023/12/24 09:27:49;;;;;;;;;;;;;;;17.58;38.35;100216.34;5063418;28;853;-52
2023/12/24 09:30:14;;;;;;;;;;;;;;;16.59;40.37;100218.25;5072746;28;1048;-50
2023/12/24 09:32:43;;;;;;;;;;;;;;;16.53;41.11;100220.44;5077279;28;1080;-49
2023/12/24 09:35:09;;;;;;;;;;;;;;;16.87;39.98;100211.53;5075169;28;1906;-49
2023/12/24 09:37:34;;;;;;;;;;;;;;;16.22;41.31;100212.31;5067233;28;1075;-51
2023/12/24 09:40:00;;;;;;;;;;;;;;;17.37;39.44;100212.75;5076524;28;1114;-49
2023/12/24 09:42:25;;;;;;;;;;;;;;;16.69;40.24;100219.19;5077111;28;2133;-50
2023/12/24 09:44:50;;;;;;;;;;;;;;;17.61;38.66;100216.09;5063480;28;1023;-46
2023/12/24 09:47:16;;;;;;;;;;;;;;;18.24;37.12;100214.25;5077317;28;1012;-49
2023/12/24 09:49:42;;;;;;;;;;;;;;;16.83;39.96;100225.19;5077268;28;1222;-48
2023/12/24 09:52:07;;;;;;;;;;;;;;;16.27;41.01;100218.09;5070123;28;872;-47
2023/12/24 09:54:33;;;;;;;;;;;;;;;17.57;38.82;100218.16;5074745;28;1971;-50
2023/12/24 09:56:59;;;;;;;;;;;;;;;16.56;40.39;100219.38;5057123;28;1138;-48
2023/12/24 09:59:24;;;;;;;;;;;;;;;16.18;41.37;100221.50;5071896;28;1083;-44
2023/12/24 10:01:50;;;;;;;;;;;;;;;17.26;39.24;100223.44;5077288;28;1149;-46
2023/12/24 10:04:16;;;;;;;;;;;;;;;17.19;39.54;100219.59;5075146;28;972;-50
2023/12/24 10:06:51;;;;;;;;;;;;;;;18.85;36.14;100214.19;5077311;28;1004;-49
2023/12/24 10:09:16;;;;;;;;;;;;;;;14.80;44.45;100201.84;5063233;28;1031;-49
2023/12/24 10:11:42;;;;;;;;;;;;;;;17.90;38.29;100203.91;5068236;28;1832;-50
2023/12/24 10:14:07;;;;;;;;;;;;;;;18.44;36.71;100188.50;5072836;28;1055;-49
2023/12/24 10:16:41;;;;;;;;;;;;;;;15.10;44.20;100189.91;5068189;28;1980;-49
2023/12/24 10:19:06;;;;;;;;;;;;;;;18.34;37.38;100177.00;5059153;28;1141;-52
2023/12/24 10:21:32;;;;;;;;;;;;;;;17.35;39.03;100180.13;5056485;28;1063;-50
2023/12/24 10:24:05;;;;;;;;;;;;;;;16.62;40.74;100168.41;5073158;28;1102;-49
2023/12/24 10:26:30;;;;;;;;;;;;;;;16.25;41.11;100171.41;5076138;28;1090;-50
2023/12/24 10:28:56;;;;;;;;;;;;;;;16.01;41.89;100177.72;5055980;28;1098;-45
2023/12/24 10:31:22;;;;;;;;;;;;;;;17.78;38.71;100165.91;5075728;28;1238;-49
2023/12/24 10:33:48;;;;;;;;;;;;;;;16.54;40.45;100165.53;5071775;28;1095;-53
2023/12/24 10:36:14;;;;;;;;;;;;;;;17.76;38.64;100158.06;5076199;28;2000;-47
2023/12/24 10:38:40;;;;;;;;;;;;;;;17.72;38.16;100141.50;5057575;28;1148;-49
2023/12/24 10:41:06;;;;;;;;;;;;;;;16.62;40.69;100155.13;5064310;28;1960;-46
2023/12/24 10:43:31;;;;;;;;;;;;;;;16.16;41.25;100149.94;5074452;28;1012;-49
2023/12/24 10:45:57;;;;;;;;;;;;;;;17.09;39.56;100156.63;5076093;28;1187;-50
2023/12/24 10:48:22;;;;;;;;;;;;;;;16.34;41.00;100151.22;5075619;28;1062;-49
2023/12/24 10:50:48;;;;;;;;;;;;;;;16.06;41.53;100146.38;5075070;28;1095;-45
2023/12/24 10:53:14;;;;;;;;;;;;;;;17.36;39.12;100136.63;5068964;28;1156;-46
2023/12/24 10:55:40;;;;;;;;;;;;;;;16.33;41.32;100141.59;5075680;28;1970;-47
2023/12/24 10:58:18;;;;;;;;;;;;;;;16.33;41.47;100139.75;5048519;28;1090;-46
2023/12/24 11:00:43;;;;;;;;;;;;;;;16.97;39.88;100115.09;5055688;28;997;-46
2023/12/24 11:03:09;;;;;;;;;;;;;;;16.15;41.27;100129.69;5071919;28;1138;-49
2023/12/24 11:05:45;;;;;;;;;;;;;;;15.95;42.10;100115.34;5063137;28;1171;-52
2023/12/24 11:08:22;;;;;;;;;;;;;;;16.71;40.90;100105.72;5062927;28;1110;-51
2023/12/24 11:10:57;;;;;;;;;;;;;;;16.91;39.78;100105.00;5072913;28;2196;-47
2023/12/24 11:13:32;;;;;;;;;;;;;;;17.07;40.08;100102.72;5065756;28;1092;-51
2023/12/24 11:15:58;;;;;;;;;;;;;;;18.39;37.10;100100.19;5070569;28;1991;-47
2023/12/24 11:18:39;;;;;;;;;;;;;;;16.74;40.39;100078.91;5046478;28;1063;-47
2023/12/24 11:21:04;;;;;;;;;;;;;;;16.14;41.47;100092.66;5068807;28;1131;-46
2023/12/24 11:23:30;;;;;;;;;;;;;;;17.94;38.49;100101.50;5055309;28;1020;-48
2023/12/24 11:25:55;;;;;;;;;;;;;;;16.91;40.13;100116.47;5055411;28;1230;-51
2023/12/24 11:28:24;;;;;;;;;;;;;;;16.25;41.40;100137.75;5068275;28;1341;-52
2023/12/24 11:30:49;;;;;;;;;;;;;;;16.00;41.58;100129.13;5067968;28;1113;-50
2023/12/24 11:33:50;;;;;;;;;;;;;;;17.65;38.86;100137.69;5069266;28;1188;-51
2023/12/24 11:36:16;;;;;;;;;;;;;;;16.12;41.67;100131.75;4981931;28;1968;-48
2023/12/24 11:38:42;;;;;;;;;;;;;;;16.91;40.74;100140.38;5038732;28;1149;-46
2023/12/24 11:41:08;;;;;;;;;;;;;;;16.51;40.69;100133.94;5068291;28;1853;-50
2023/12/24 11:43:34;;;;;;;;;;;;;;;16.00;42.13;100136.22;5068825;28;1064;-52
2023/12/24 11:45:59;;;;;;;;;;;;;;;17.74;38.59;100144.03;5067499;28;1124;-52
2023/12/24 11:48:28;;;;;;;;;;;;;;;16.36;41.40;100157.28;5061851;28;1007;-49
2023/12/24 11:51:09;;;;;;;;;;;;;;;17.95;38.40;100153.78;5075384;28;1036;-49
2023/12/24 11:53:35;;;;;;;;;;;;;;;17.06;39.63;100159.50;5062614;28;1484;-53
2023/12/24 11:56:15;;;;;;;;;;;;;;;16.30;41.53;100168.41;5074712;28;1902;-48
2023/12/24 11:58:44;;;;;;;;;;;;;;;17.42;39.02;100171.59;5075233;28;1022;-46
2023/12/24 12:01:09;;;;;;;;;;;;;;;16.39;41.23;100180.91;5071244;28;983;-50
2023/12/24 12:03:36;;;;;;;;;;;;;;;16.11;41.45;100193.75;5062499;28;1143;-51
2023/12/24 12:06:02;;;;;;;;;;;;;;;17.11;39.89;100197.19;5055096;28;1096;-52
2023/12/24 12:08:28;;;;;;;;;;;;;;;16.24;41.51;100190.94;5054893;28;1079;-48
2023/12/24 12:10:54;;;;;;;;;;;;;;;15.05;40.82;99908.63;5054810;28;2369;-52
2023/12/24 12:13:19;;;;;;;;;;;;;;;16.64;40.88;100195.69;5054945;28;1027;-46
2023/12/24 12:15:45;;;;;;;;;;;;;;;17.04;40.21;100188.00;5057833;28;1902;-48
2023/12/24 12:18:11;;;;;;;;;;;;;;;18.17;37.69;100190.00;5074851;28;1092;-51
2023/12/24 12:20:36;;;;;;;;;;;;;;;16.64;40.81;100189.53;5061605;28;1070;-49
2023/12/24 12:23:02;;;;;;;;;;;;;;;16.23;41.24;100181.31;5067406;28;1178;-46
2023/12/24 12:25:28;;;;;;;;;;;;;;;17.64;38.95;100194.53;5075562;28;1067;-45
2023/12/24 12:27:53;;;;;;;;;;;;;;;16.53;41.04;100196.53;5074566;28;1043;-48
2023/12/24 12:30:22;;;;;;;;;;;;;;;16.53;41.70;100207.16;5058604;28;1079;-50
2023/12/24 12:32:48;;;;;;;;;;;;;;;16.86;40.39;100204.53;5069638;28;1147;-51
2023/12/24 12:35:13;;;;;;;;;;;;;;;16.19;42.10;100212.56;5064841;28;1975;-49
2023/12/24 12:37:39;;;;;;;;;;;;;;;18.31;37.72;100219.88;5077976;28;1198;-47
2023/12/24 12:40:05;;;;;;;;;;;;;;;16.64;40.72;100216.06;5073553;28;1228;-48
2023/12/24 12:42:31;;;;;;;;;;;;;;;16.21;41.71;100217.75;5057940;28;2717;-47
2023/12/24 12:44:57;;;;;;;;;;;;;;;17.46;39.58;100205.81;5075318;28;1172;-50
2023/12/24 12:47:23;;;;;;;;;;;;;;;16.47;41.16;100212.97;5067563;28;1080;-49